Time;durP1;ratioP1;P1;durP2;ratioP2;P2;SDS_P1;SDS_P2;PMS_P1;PMS_P2;Temp;Humidity;BMP_temperature;BMP_pressure;BME280_temperature;BME280_humidity;BME280_pressure;Samples;Min_cycle;Max_cycle;Signal;HPM_P1;HPM_P2
2024/01/20 00:01:31;;;;;;;10.80;6.27;;;-5.00;99.90;;;;;;5075625;28;20412;-71
2024/01/20 00:03:56;;;;;;;7.90;5.23;;;-5.00;99.90;;;;;;5074726;28;20424;-71
2024/01/20 00:06:22;;;;;;;7.00;4.53;;;-5.10;99.90;;;;;;5092971;28;20249;-71
2024/01/20 00:08:47;;;;;;;11.50;7.17;;;-5.00;99.90;;;;;;5093468;28;20660;-71
2024/01/20 00:11:13;;;;;;;10.63;6.97;;;-5.00;99.90;;;;;;5093503;28;20652;-71
2024/01/20 00:13:39;;;;;;;6.60;4.10;;;-4.90;99.90;;;;;;5093540;28;20734;-71
2024/01/20 00:16:05;;;;;;;8.07;5.30;;;-4.90;99.90;;;;;;5093237;28;20407;-70
2024/01/20 00:18:30;;;;;;;11.90;5.83;;;-4.90;99.90;;;;;;5075432;28;20166;-70
2024/01/20 00:20:56;;;;;;;5.53;4.57;;;-4.90;99.90;;;;;;5093483;28;20154;-71
2024/01/20 00:23:22;;;;;;;10.80;4.70;;;-4.80;99.90;;;;;;5075460;28;20695;-71
2024/01/20 00:25:47;;;;;;;10.30;6.60;;;-4.70;99.90;;;;;;5093497;28;20481;-71
2024/01/20 00:28:13;;;;;;;11.50;5.77;;;-4.60;99.90;;;;;;5075294;28;20196;-71
2024/01/20 00:30:38;;;;;;;6.10;4.40;;;-4.60;99.90;;;;;;5075316;28;20174;-71
2024/01/20 00:33:08;;;;;;;8.97;5.43;;;-4.60;99.90;;;;;;5093272;28;20251;-71
2024/01/20 00:35:34;;;;;;;9.03;4.97;;;-4.60;99.90;;;;;;5074697;28;20553;-71
2024/01/20 00:37:59;;;;;;;7.67;4.07;;;-4.60;99.90;;;;;;5092937;28;20457;-71
2024/01/20 00:40:25;;;;;;;13.70;5.83;;;-4.60;99.90;;;;;;5075083;28;20426;-71
2024/01/20 00:42:50;;;;;;;12.57;6.17;;;-4.60;99.90;;;;;;5075099;28;20170;-70
2024/01/20 00:45:16;;;;;;;15.80;5.43;;;-4.60;99.90;;;;;;5074754;28;20209;-70
2024/01/20 00:47:43;;;;;;;9.30;5.40;;;-4.60;99.90;;;;;;5074943;28;20188;-70
2024/01/20 00:50:08;;;;;;;8.23;4.90;;;-4.60;99.90;;;;;;5074910;28;20268;-70
2024/01/20 00:52:34;;;;;;;9.67;4.40;;;-4.70;99.90;;;;;;5074591;28;20570;-71
2024/01/20 00:54:59;;;;;;;7.13;5.53;;;-4.70;99.90;;;;;;5092788;28;20268;-71
2024/01/20 00:57:25;;;;;;;12.33;5.50;;;-4.70;99.90;;;;;;5074602;28;20166;-71
2024/01/20 00:59:50;;;;;;;13.47;4.67;;;-4.60;99.90;;;;;;5074654;28;20533;-72
2024/01/20 01:02:18;;;;;;;13.10;5.27;;;-4.60;99.90;;;;;;5074625;28;20174;-72
2024/01/20 01:04:44;;;;;;;9.80;5.20;;;-4.60;99.90;;;;;;5074506;28;20589;-72
2024/01/20 01:07:10;;;;;;;20.10;6.20;;;-4.60;99.90;;;;;;5074287;28;20399;-71
2024/01/20 01:09:36;;;;;;;5.87;4.03;;;-4.60;99.90;;;;;;5092618;28;20837;-71
2024/01/20 01:12:01;;;;;;;8.37;4.47;;;-4.60;99.90;;;;;;5074409;28;20180;-71
2024/01/20 01:14:27;;;;;;;6.80;5.50;;;-4.70;99.90;;;;;;5091377;28;20559;-71
2024/01/20 01:16:53;;;;;;;7.70;4.30;;;-4.70;99.90;;;;;;5092450;28;20169;-71
2024/01/20 01:19:19;;;;;;;9.30;4.03;;;-4.80;99.90;;;;;;5092190;28;20223;-70
2024/01/20 01:21:44;;;;;;;8.23;4.77;;;-4.80;99.90;;;;;;5092566;28;20813;-70
2024/01/20 01:24:10;;;;;;;6.43;3.90;;;-4.80;99.90;;;;;;5073543;28;20423;-71
2024/01/20 01:26:35;;;;;;;5.87;4.77;;;-4.80;99.90;;;;;;5073994;28;20629;-70
2024/01/20 01:29:01;;;;;;;5.30;3.87;;;-4.90;99.90;;;;;;5074254;28;20185;-71
2024/01/20 01:31:26;;;;;;;5.77;3.53;;;-4.90;99.90;;;;;;5074249;28;20185;-71
2024/01/20 01:33:52;;;;;;;7.33;4.83;;;-5.00;99.90;;;;;;5091822;28;20209;-71
2024/01/20 01:36:18;;;;;;;6.53;4.30;;;-5.00;99.90;;;;;;5091866;28;20517;-71
2024/01/20 01:38:43;;;;;;;12.90;6.33;;;-5.00;99.90;;;;;;5074440;28;20628;-71
2024/01/20 01:41:09;;;;;;;9.57;4.60;;;-5.10;99.90;;;;;;5074166;28;20166;-72
2024/01/20 01:43:34;;;;;;;12.40;3.80;;;-5.10;99.90;;;;;;5073844;28;20173;-71
2024/01/20 01:46:00;;;;;;;6.53;4.03;;;-5.20;99.90;;;;;;5073804;28;20690;-70
2024/01/20 01:48:26;;;;;;;9.60;6.10;;;-5.20;99.90;;;;;;5092272;28;20162;-72
2024/01/20 01:50:54;;;;;;;17.50;5.53;;;-5.30;99.90;;;;;;5091927;28;20667;-71
2024/01/20 01:53:21;;;;;;;6.57;4.10;;;-5.40;99.90;;;;;;5074126;28;20550;-70
2024/01/20 01:55:47;;;;;;;9.57;4.70;;;-5.50;99.90;;;;;;5091936;28;20511;-71
2024/01/20 01:58:13;;;;;;;6.60;4.57;;;-5.50;99.90;;;;;;5092023;28;20172;-70
2024/01/20 02:00:39;;;;;;;10.10;5.00;;;-5.50;99.90;;;;;;5091650;28;20419;-71
2024/01/20 02:03:05;;;;;;;11.07;6.67;;;-5.50;99.90;;;;;;5091682;28;20886;-71
2024/01/20 02:05:30;;;;;;;10.03;5.50;;;-5.50;99.90;;;;;;5091221;28;20201;-71
2024/01/20 02:07:58;;;;;;;9.90;4.83;;;-5.40;99.90;;;;;;5091735;28;20165;-71
2024/01/20 02:10:23;;;;;;;10.33;3.50;;;-5.30;99.90;;;;;;5073603;28;20185;-72
2024/01/20 02:12:49;;;;;;;9.73;5.63;;;-5.30;99.90;;;;;;5091840;28;20523;-72
2024/01/20 02:15:15;;;;;;;12.00;5.07;;;-5.30;99.90;;;;;;5091578;28;20663;-72
2024/01/20 02:17:55;;;;;;;9.60;4.60;;;-5.20;99.90;;;;;;5073694;28;20422;-72
2024/01/20 02:20:20;;;;;;;11.13;5.23;;;-5.20;99.90;;;;;;5073579;28;20786;-72
2024/01/20 02:22:46;;;;;;;7.93;5.27;;;-5.20;99.90;;;;;;5073622;28;20411;-72
2024/01/20 02:25:12;;;;;;;6.20;4.50;;;-5.20;99.90;;;;;;5073342;28;20197;-72
2024/01/20 02:27:38;;;;;;;12.33;4.90;;;-5.20;99.90;;;;;;5091708;28;20518;-72
2024/01/20 02:30:04;;;;;;;7.10;3.93;;;-5.10;99.90;;;;;;5073605;28;20277;-72
2024/01/20 02:32:29;;;;;;;7.90;4.50;;;-5.10;99.90;;;;;;5091746;28;20170;-72
2024/01/20 02:34:55;;;;;;;8.10;4.00;;;-5.10;99.90;;;;;;5074555;28;20450;-72
2024/01/20 02:37:20;;;;;;;10.13;5.67;;;-5.10;99.90;;;;;;5077484;28;20177;-71
2024/01/20 02:39:46;;;;;;;9.73;5.40;;;-5.10;99.90;;;;;;5077387;28;20169;-72
2024/01/20 02:42:12;;;;;;;8.50;4.97;;;-5.10;99.90;;;;;;5095632;28;20181;-70
2024/01/20 02:44:38;;;;;;;10.33;4.90;;;-5.10;99.90;;;;;;5076551;28;21000;-71
2024/01/20 02:47:04;;;;;;;10.10;3.90;;;-5.10;99.90;;;;;;5077299;28;20546;-71
2024/01/20 02:49:30;;;;;;;9.13;5.63;;;-5.20;99.90;;;;;;5095186;28;20719;-71
2024/01/20 02:51:55;;;;;;;9.10;5.73;;;-5.20;99.90;;;;;;5095117;28;20514;-71
2024/01/20 02:54:21;;;;;;;7.93;4.67;;;-5.20;99.90;;;;;;5077010;28;20463;-71
2024/01/20 02:56:46;;;;;;;7.67;5.30;;;-5.30;99.90;;;;;;5076690;28;20174;-71
2024/01/20 02:59:12;;;;;;;9.60;5.53;;;-5.50;99.90;;;;;;5077031;28;20177;-71
2024/01/20 03:01:37;;;;;;;5.63;3.40;;;-5.50;99.90;;;;;;5076946;28;20177;-72
2024/01/20 03:04:03;;;;;;;7.27;5.53;;;-5.40;99.90;;;;;;5095052;28;20182;-72
2024/01/20 03:06:29;;;;;;;9.20;3.70;;;-5.40;99.90;;;;;;5076962;28;20194;-72
2024/01/20 03:08:55;;;;;;;6.47;3.93;;;-5.40;99.90;;;;;;5076711;28;20540;-72
2024/01/20 03:11:20;;;;;;;6.33;4.90;;;-5.50;99.90;;;;;;5076852;28;20178;-71
2024/01/20 03:13:46;;;;;;;10.00;3.83;;;-5.50;99.90;;;;;;5094891;28;20189;-71
2024/01/20 03:16:11;;;;;;;7.73;4.47;;;-5.40;99.90;;;;;;5076466;28;20190;-71
2024/01/20 03:18:37;;;;;;;11.83;4.73;;;-5.50;99.90;;;;;;5094862;28;20324;-71
2024/01/20 03:21:06;;;;;;;6.60;3.77;;;-5.40;99.90;;;;;;5076739;28;20550;-71
2024/01/20 03:23:32;;;;;;;9.37;5.17;;;-5.40;99.90;;;;;;5076488;28;20227;-71
2024/01/20 03:25:58;;;;;;;9.07;4.33;;;-5.50;99.90;;;;;;5076263;28;20415;-71
2024/01/20 03:28:23;;;;;;;12.50;5.50;;;-5.50;99.90;;;;;;5094549;28;20410;-71
2024/01/20 03:30:49;;;;;;;6.50;3.77;;;-5.50;99.90;;;;;;5094515;28;20803;-72
2024/01/20 03:33:14;;;;;;;4.73;3.53;;;-5.50;99.90;;;;;;5094404;28;20727;-72
2024/01/20 03:35:40;;;;;;;10.17;5.37;;;-5.60;99.90;;;;;;5094229;28;20256;-72
2024/01/20 03:38:05;;;;;;;5.50;3.97;;;-5.60;99.90;;;;;;5076509;28;20166;-72
2024/01/20 03:40:31;;;;;;;6.40;3.10;;;-5.70;99.90;;;;;;5094410;28;20216;-72
2024/01/20 03:42:56;;;;;;;9.03;4.90;;;-5.80;99.90;;;;;;5076240;28;20611;-71
2024/01/20 03:45:22;;;;;;;6.97;3.83;;;-5.80;99.90;;;;;;5093988;28;20244;-72
2024/01/20 03:47:48;;;;;;;13.97;5.43;;;-5.90;99.90;;;;;;5093699;28;20169;-71
2024/01/20 03:50:13;;;;;;;6.93;3.77;;;-5.80;99.90;;;;;;5094254;28;20224;-71
2024/01/20 03:52:39;;;;;;;13.23;4.40;;;-5.90;99.90;;;;;;5093941;28;20192;-72
2024/01/20 03:55:06;;;;;;;8.80;4.20;;;-5.90;99.90;;;;;;5093705;28;20201;-72
2024/01/20 03:57:31;;;;;;;3.63;3.20;;;-5.90;99.90;;;;;;5075823;28;20173;-72
2024/01/20 03:59:57;;;;;;;6.20;4.00;;;-5.90;99.90;;;;;;5075736;28;20404;-72
2024/01/20 04:02:23;;;;;;;9.20;5.87;;;-5.90;99.90;;;;;;5075940;28;20161;-71
2024/01/20 04:04:48;;;;;;;10.20;4.20;;;-5.90;99.90;;;;;;5093715;28;20290;-71
2024/01/20 04:07:14;;;;;;;5.00;2.67;;;-5.90;99.90;;;;;;5075801;28;20176;-72
2024/01/20 04:09:40;;;;;;;7.20;5.00;;;-6.00;99.90;;;;;;5075908;28;20181;-72
2024/01/20 04:12:06;;;;;;;6.53;4.47;;;-6.00;99.90;;;;;;5075460;28;20407;-72
2024/01/20 04:14:32;;;;;;;5.47;4.27;;;-6.00;99.90;;;;;;5075162;28;21031;-72
2024/01/20 04:16:58;;;;;;;9.10;5.03;;;-6.10;99.90;;;;;;5093427;28;20400;-72
2024/01/20 04:19:24;;;;;;;7.23;4.00;;;-6.10;99.90;;;;;;5093483;28;20162;-71
2024/01/20 04:21:49;;;;;;;10.50;5.73;;;-6.20;99.90;;;;;;5093363;28;20271;-71
2024/01/20 04:24:15;;;;;;;9.63;5.20;;;-6.40;99.90;;;;;;5075259;28;20189;-71
2024/01/20 04:26:40;;;;;;;8.00;6.00;;;-6.40;99.90;;;;;;5093251;28;20164;-71
2024/01/20 04:29:06;;;;;;;8.33;4.70;;;-6.40;99.90;;;;;;5075391;28;20165;-71
2024/01/20 04:31:31;;;;;;;13.90;4.80;;;-6.50;99.90;;;;;;5075247;28;20181;-71
2024/01/20 04:33:57;;;;;;;17.03;4.73;;;-6.50;99.90;;;;;;5075134;28;20201;-71
2024/01/20 04:36:23;;;;;;;9.40;5.03;;;-6.50;99.90;;;;;;5075102;28;20180;-72
2024/01/20 04:38:48;;;;;;;9.30;5.57;;;-6.50;99.90;;;;;;5093454;28;20418;-72
2024/01/20 04:41:14;;;;;;;14.87;6.00;;;-6.50;99.90;;;;;;5075440;28;20208;-72
2024/01/20 04:43:39;;;;;;;6.30;4.10;;;-6.50;99.90;;;;;;5093338;28;20204;-71
2024/01/20 04:46:05;;;;;;;8.13;4.30;;;-6.50;99.90;;;;;;5074913;28;20165;-71
2024/01/20 04:48:31;;;;;;;8.23;4.40;;;-6.60;99.90;;;;;;5093196;28;20169;-72
2024/01/20 04:50:57;;;;;;;7.13;3.47;;;-6.70;99.90;;;;;;5093097;28;20651;-71
2024/01/20 04:53:22;;;;;;;8.60;4.00;;;-6.70;99.90;;;;;;5092986;28;20276;-71
2024/01/20 04:55:48;;;;;;;6.43;3.90;;;-6.80;99.90;;;;;;5092643;28;20577;-72
2024/01/20 04:58:14;;;;;;;8.70;2.70;;;-6.80;99.90;;;;;;5073804;28;20170;-71
2024/01/20 05:00:39;;;;;;;7.93;3.70;;;-6.80;99.90;;;;;;5092833;28;20170;-71
2024/01/20 05:03:05;;;;;;;4.17;3.60;;;-6.80;99.90;;;;;;5074714;28;20183;-71
2024/01/20 05:05:31;;;;;;;6.33;3.30;;;-6.80;99.90;;;;;;5092436;28;20192;-71
2024/01/20 05:07:56;;;;;;;7.90;2.00;;;-6.80;99.90;;;;;;5074780;28;20174;-72
2024/01/20 05:10:22;;;;;;;13.53;5.70;;;-6.80;99.90;;;;;;5092767;28;20172;-71
2024/01/20 05:12:47;;;;;;;7.57;3.77;;;-6.80;99.90;;;;;;5092652;28;20251;-72
2024/01/20 05:15:13;;;;;;;15.53;4.00;;;-6.80;99.90;;;;;;5074166;28;20189;-72
2024/01/20 05:17:39;;;;;;;4.20;3.37;;;-6.80;99.90;;;;;;5074545;28;20169;-72
2024/01/20 05:20:05;;;;;;;7.13;3.53;;;-6.80;99.90;;;;;;5092411;28;20168;-72
2024/01/20 05:22:31;;;;;;;11.03;4.10;;;-6.80;99.90;;;;;;5092525;28;20395;-72
2024/01/20 05:24:57;;;;;;;4.10;3.70;;;-6.80;99.90;;;;;;5074187;28;20428;-71
2024/01/20 05:27:22;;;;;;;4.47;2.90;;;-6.90;99.90;;;;;;5092312;28;20828;-71
2024/01/20 05:29:48;;;;;;;4.80;3.33;;;-6.90;99.90;;;;;;5074245;28;20705;-71
2024/01/20 05:32:15;;;;;;;9.40;4.00;;;-6.90;99.90;;;;;;5074314;28;20260;-72
2024/01/20 05:34:40;;;;;;;6.93;4.03;;;-7.00;99.90;;;;;;5074204;28;20205;-71
2024/01/20 05:37:06;;;;;;;9.30;4.50;;;-6.90;99.90;;;;;;5074016;28;20493;-71
2024/01/20 05:39:32;;;;;;;9.13;4.97;;;-6.90;99.90;;;;;;5092476;28;20536;-71
2024/01/20 05:41:57;;;;;;;10.00;5.67;;;-7.00;99.90;;;;;;5092431;28;20231;-71
2024/01/20 05:44:23;;;;;;;13.93;4.57;;;-7.00;99.90;;;;;;5091977;28;20687;-71
2024/01/20 05:46:48;;;;;;;6.90;4.10;;;-7.00;99.90;;;;;;5073735;28;20174;-71
2024/01/20 05:49:14;;;;;;;8.00;5.00;;;-7.00;99.90;;;;;;5073841;28;20197;-71
2024/01/20 05:51:39;;;;;;;8.40;5.10;;;-7.00;99.90;;;;;;5091987;28;20185;-71
2024/01/20 05:54:05;;;;;;;8.77;5.70;;;-7.00;99.90;;;;;;5073713;28;20223;-71
2024/01/20 05:56:30;;;;;;;9.13;4.43;;;-7.00;99.90;;;;;;5073669;28;20184;-71
2024/01/20 05:58:56;;;;;;;3.77;3.27;;;-7.00;99.90;;;;;;5074037;28;20310;-72
2024/01/20 06:01:21;;;;;;;9.13;5.20;;;-7.10;99.90;;;;;;5073976;28;20632;-71
2024/01/20 06:03:47;;;;;;;5.57;4.00;;;-7.10;99.90;;;;;;5091987;28;20201;-72
2024/01/20 06:06:13;;;;;;;6.77;3.33;;;-7.10;99.90;;;;;;5073838;28;20162;-71
2024/01/20 06:08:39;;;;;;;7.20;4.13;;;-7.20;99.90;;;;;;5073755;28;20663;-71
2024/01/20 06:11:05;;;;;;;4.03;3.27;;;-7.20;99.90;;;;;;5076480;28;20256;-71
2024/01/20 06:13:30;;;;;;;3.53;2.97;;;-7.20;99.90;;;;;;5077575;28;20550;-71
2024/01/20 06:15:56;;;;;;;5.20;3.87;;;-7.30;99.90;;;;;;5078196;28;20192;-72
2024/01/20 06:18:21;;;;;;;3.70;2.40;;;-7.40;99.90;;;;;;5078567;28;20219;-72
2024/01/20 06:20:47;;;;;;;5.80;3.80;;;-7.50;99.90;;;;;;5078460;28;20264;-72
2024/01/20 06:23:13;;;;;;;11.77;3.97;;;-7.50;99.90;;;;;;5078648;28;20584;-72
2024/01/20 06:25:38;;;;;;;8.13;4.90;;;-7.60;99.90;;;;;;5096080;28;20182;-72
2024/01/20 06:28:05;;;;;;;6.10;3.50;;;-7.60;99.90;;;;;;5078639;28;20539;-72
2024/01/20 06:30:31;;;;;;;12.90;5.03;;;-7.60;99.90;;;;;;5078584;28;20176;-72
2024/01/20 06:32:58;;;;;;;7.03;4.00;;;-7.60;99.90;;;;;;5078451;28;20447;-72
2024/01/20 06:35:24;;;;;;;6.07;3.63;;;-7.60;99.90;;;;;;5096286;28;20443;-72
2024/01/20 06:37:50;;;;;;;5.03;3.43;;;-7.60;99.90;;;;;;5078225;28;20411;-72
2024/01/20 06:40:16;;;;;;;4.60;2.57;;;-7.60;99.90;;;;;;5096556;28;20404;-72
2024/01/20 06:42:42;;;;;;;5.23;2.50;;;-7.60;99.90;;;;;;5078186;28;20166;-72
2024/01/20 06:45:08;;;;;;;4.03;2.67;;;-7.60;99.90;;;;;;5096438;28;20429;-72
2024/01/20 06:47:34;;;;;;;4.13;3.03;;;-7.60;99.90;;;;;;5078467;28;20780;-72
2024/01/20 06:50:00;;;;;;;5.57;3.30;;;-7.60;99.90;;;;;;5096409;28;20486;-72
2024/01/20 06:52:25;;;;;;;5.07;2.53;;;-7.60;99.90;;;;;;5096499;28;20199;-72
2024/01/20 06:54:51;;;;;;;6.67;2.80;;;-7.60;99.90;;;;;;5077722;28;20937;-71
2024/01/20 06:57:16;;;;;;;12.60;2.90;;;-7.60;99.90;;;;;;5095132;28;20162;-71
2024/01/20 06:59:42;;;;;;;3.73;2.33;;;-7.60;99.90;;;;;;5077186;28;20161;-72
2024/01/20 07:02:08;;;;;;;6.97;3.10;;;-7.60;99.90;;;;;;5095244;28;20534;-72
2024/01/20 07:04:33;;;;;;;5.60;1.77;;;-7.60;99.90;;;;;;5076821;28;20227;-71
2024/01/20 07:06:59;;;;;;;3.53;2.37;;;-7.70;99.90;;;;;;5094999;28;20793;-71
2024/01/20 07:09:25;;;;;;;4.57;2.77;;;-7.70;99.90;;;;;;5076876;28;20177;-71
2024/01/20 07:11:53;;;;;;;3.60;3.30;;;-7.70;99.90;;;;;;5076827;28;20176;-71
2024/01/20 07:14:19;;;;;;;6.63;3.53;;;-7.70;99.90;;;;;;5076652;28;20828;-71
2024/01/20 07:16:45;;;;;;;4.37;3.07;;;-7.70;99.90;;;;;;5076719;28;20408;-71
2024/01/20 07:19:10;;;;;;;8.00;3.67;;;-7.70;99.90;;;;;;5094881;28;20403;-71
2024/01/20 07:21:36;;;;;;;6.23;4.30;;;-7.60;99.90;;;;;;5075564;28;20265;-72
2024/01/20 07:24:01;;;;;;;5.83;4.73;;;-7.60;99.90;;;;;;5076287;28;20189;-71
2024/01/20 07:26:27;;;;;;;8.00;4.40;;;-7.60;99.90;;;;;;5094364;28;20580;-71
2024/01/20 07:28:52;;;;;;;10.20;5.73;;;-7.50;99.90;;;;;;5076858;28;20377;-71
2024/01/20 07:31:18;;;;;;;7.40;4.17;;;-7.50;99.90;;;;;;5076313;28;20178;-72
2024/01/20 07:33:44;;;;;;;4.40;4.00;;;-7.50;99.90;;;;;;5095710;28;20272;-72
2024/01/20 07:36:09;;;;;;;6.30;4.10;;;-7.50;99.90;;;;;;5077610;28;20496;-72
2024/01/20 07:38:35;;;;;;;6.07;4.33;;;-7.50;99.90;;;;;;5096956;28;21195;-72
2024/01/20 07:41:01;;;;;;;10.57;4.57;;;-7.50;99.90;;;;;;5077713;28;20169;-71
2024/01/20 07:43:26;;;;;;;9.03;4.77;;;-7.60;99.90;;;;;;5095797;28;20162;-72
2024/01/20 07:45:54;;;;;;;13.60;4.87;;;-7.40;99.90;;;;;;5095242;28;20565;-72
2024/01/20 07:48:20;;;;;;;6.60;3.83;;;-7.40;99.90;;;;;;5095326;28;20158;-72
2024/01/20 07:50:46;;;;;;;9.10;3.60;;;-7.30;99.90;;;;;;5094533;28;20403;-72
2024/01/20 07:53:11;;;;;;;4.83;3.20;;;-7.20;99.90;;;;;;5075425;28;20821;-72
2024/01/20 07:55:37;;;;;;;10.07;4.50;;;-7.20;99.90;;;;;;5076001;28;20189;-72
2024/01/20 07:58:02;;;;;;;7.50;3.43;;;-7.10;99.90;;;;;;5076034;28;20598;-72
2024/01/20 08:00:28;;;;;;;4.47;3.60;;;-7.00;99.90;;;;;;5075991;28;20521;-72
2024/01/20 08:02:53;;;;;;;8.07;3.13;;;-6.90;99.90;;;;;;5075888;28;20212;-72
2024/01/20 08:05:19;;;;;;;14.20;5.37;;;-6.90;99.90;;;;;;5075435;28;20235;-71
2024/01/20 08:07:44;;;;;;;7.03;6.07;;;-6.80;99.90;;;;;;5093960;28;20170;-72
2024/01/20 08:10:10;;;;;;;8.07;5.00;;;-6.80;99.90;;;;;;5094035;28;20248;-72
2024/01/20 08:12:36;;;;;;;9.83;6.00;;;-6.70;99.90;;;;;;5094104;28;20174;-72
2024/01/20 08:15:01;;;;;;;7.10;5.93;;;-6.70;99.90;;;;;;5075608;28;21061;-71
2024/01/20 08:17:27;;;;;;;12.63;4.40;;;-6.40;99.90;;;;;;5075718;28;20177;-72
2024/01/20 08:19:52;;;;;;;13.30;7.33;;;-6.20;99.90;;;;;;5075699;28;20197;-72
2024/01/20 08:22:19;;;;;;;13.87;10.27;;;-5.00;99.90;;;;;;5093617;28;20169;-72
2024/01/20 08:24:45;;;;;;;17.20;9.90;;;-3.20;99.90;;;;;;5093829;28;20204;-71
2024/01/20 08:27:10;;;;;;;18.73;10.33;;;-1.40;99.90;;;;;;5075340;28;20398;-72
2024/01/20 08:29:36;;;;;;;17.77;10.10;;;0.20;99.90;;;;;;5093641;28;20662;-72
2024/01/20 08:32:02;;;;;;;23.97;12.17;;;1.90;99.90;;;;;;5093425;28;20306;-73
2024/01/20 08:34:27;;;;;;;18.97;10.23;;;3.40;99.90;;;;;;5093043;28;20276;-72
2024/01/20 08:36:53;;;;;;;14.70;10.90;;;4.80;99.90;;;;;;5093103;28;20165;-73
2024/01/20 08:39:19;;;;;;;22.27;9.60;;;6.20;99.90;;;;;;5093383;28;20687;-73
2024/01/20 08:41:45;;;;;;;22.13;9.37;;;7.10;99.90;;;;;;5093271;28;20154;-73
2024/01/20 08:44:11;;;;;;;12.30;8.47;;;8.30;99.90;;;;;;5093138;28;20514;-71
2024/01/20 08:46:36;;;;;;;12.73;7.43;;;9.20;90.70;;;;;;5075080;28;20564;-73
2024/01/20 08:49:02;;;;;;;12.73;8.20;;;9.90;61.60;;;;;;5075083;28;20174;-72
2024/01/20 08:51:27;;;;;;;9.87;8.40;;;10.60;55.90;;;;;;5092977;28;20188;-72
2024/01/20 08:53:53;;;;;;;13.07;8.97;;;10.60;45.80;;;;;;5092954;28;20197;-73
2024/01/20 08:56:18;;;;;;;10.50;8.70;;;11.10;43.60;;;;;;5092876;28;20170;-73
2024/01/20 08:58:44;;;;;;;13.67;8.40;;;11.50;40.90;;;;;;5092772;28;20169;-66
2024/01/20 09:01:09;;;;;;;9.83;6.90;;;12.10;39.70;;;;;;5092873;28;20169;-67
2024/01/20 09:03:35;;;;;;;12.80;8.63;;;12.60;38.70;;;;;;5092563;28;20173;-68
2024/01/20 09:06:00;;;;;;;12.37;9.17;;;12.90;36.70;;;;;;5092437;28;20632;-70
2024/01/20 09:08:26;;;;;;;13.30;9.10;;;13.20;35.60;;;;;;5092437;28;20173;-67
2024/01/20 09:10:51;;;;;;;10.60;8.10;;;13.40;34.10;;;;;;5092823;28;20214;-67
2024/01/20 09:13:17;;;;;;;10.63;7.60;;;13.60;33.10;;;;;;5092634;28;20189;-67
2024/01/20 09:15:43;;;;;;;11.53;9.10;;;13.40;31.10;;;;;;5092266;28;20649;-67
2024/01/20 09:18:09;;;;;;;12.27;9.27;;;12.50;29.60;;;;;;5092666;28;20406;-69
2024/01/20 09:20:35;;;;;;;12.57;8.80;;;12.10;29.70;;;;;;5092508;28;20755;-69
2024/01/20 09:23:01;;;;;;;10.17;8.27;;;11.90;30.00;;;;;;5092469;28;20637;-69
2024/01/20 09:25:27;;;;;;;11.80;8.30;;;12.00;30.70;;;;;;5092293;28;20182;-69
2024/01/20 09:27:53;;;;;;;15.50;9.60;;;11.50;30.50;;;;;;5092375;28;20404;-69
2024/01/20 09:30:18;;;;;;;13.13;9.90;;;11.20;31.50;;;;;;5092424;28;20482;-70
2024/01/20 09:32:44;;;;;;;14.83;9.00;;;10.60;31.00;;;;;;5092288;28;20164;-69
2024/01/20 09:35:09;;;;;;;13.87;10.80;;;10.30;31.60;;;;;;5092069;28;20527;-69
2024/01/20 09:37:38;;;;;;;16.80;8.70;;;10.30;32.20;;;;;;5092236;28;20169;-68
2024/01/20 09:40:05;;;;;;;12.07;8.67;;;10.40;32.40;;;;;;5074163;28;20177;-67
2024/01/20 09:42:31;;;;;;;11.90;9.57;;;10.30;32.30;;;;;;5092147;28;20391;-68
2024/01/20 09:44:58;;;;;;;13.20;8.90;;;10.00;32.30;;;;;;5091419;28;20876;-70
2024/01/20 09:47:23;;;;;;;13.73;8.47;;;10.20;32.90;;;;;;5092081;28;20450;-67
2024/01/20 09:49:49;;;;;;;11.80;7.60;;;10.70;33.10;;;;;;5092136;28;20407;-68
2024/01/20 09:52:18;;;;;;;10.10;8.27;;;11.60;33.60;;;;;;5091908;28;20212;-68
2024/01/20 09:55:14;;;;;;;12.83;8.03;;;12.10;33.00;;;;;;5092052;28;20284;-68
2024/01/20 09:57:41;;;;;;;9.53;7.83;;;12.40;32.40;;;;;;5091722;28;20396;-68
2024/01/20 10:00:08;;;;;;;12.57;8.73;;;12.70;32.00;;;;;;5091867;28;20763;-67
2024/01/20 10:02:35;;;;;;;14.00;8.40;;;12.80;31.40;;;;;;5091977;28;20800;-68
2024/01/20 10:05:04;;;;;;;17.50;9.20;;;12.60;31.00;;;;;;5091674;28;20965;-68
2024/01/20 10:07:30;;;;;;;10.77;7.33;;;11.90;30.40;;;;;;5091857;28;20404;-68
2024/01/20 10:09:57;;;;;;;11.20;7.80;;;11.40;30.40;;;;;;5091942;28;20399;-68
2024/01/20 10:12:23;;;;;;;12.63;8.10;;;11.10;31.10;;;;;;5091562;28;20407;-68
2024/01/20 10:14:49;;;;;;;11.07;8.40;;;11.30;32.00;;;;;;5091196;28;20459;-68
2024/01/20 10:17:15;;;;;;;12.27;8.53;;;11.50;32.00;;;;;;5091130;28;20408;-67
2024/01/20 10:19:40;;;;;;;11.27;8.00;;;11.50;32.20;;;;;;5091768;28;20913;-68
2024/01/20 10:22:10;;;;;;;11.40;8.60;;;11.20;31.50;;;;;;5091741;28;20165;-67
2024/01/20 10:24:50;;;;;;;11.70;7.83;;;11.00;31.90;;;;;;5091427;28;20251;-68
2024/01/20 10:27:18;;;;;;;11.50;8.03;;;11.50;32.70;;;;;;5091452;28;20407;-69
2024/01/20 10:29:45;;;;;;;11.97;7.60;;;12.20;32.80;;;;;;5091722;28;20395;-69
2024/01/20 10:32:10;;;;;;;12.67;8.50;;;13.00;32.60;;;;;;5091299;28;20407;-69
2024/01/20 10:34:36;;;;;;;10.33;8.23;;;13.80;31.80;;;;;;5091379;28;20463;-69
2024/01/20 10:37:08;;;;;;;10.97;8.37;;;14.40;31.00;;;;;;5091446;28;20168;-69
2024/01/20 10:39:42;;;;;;;10.80;8.27;;;15.00;30.60;;;;;;5091622;28;20235;-69
2024/01/20 10:42:12;;;;;;;12.90;8.80;;;14.40;29.10;;;;;;5091363;28;20399;-69
2024/01/20 10:44:41;;;;;;;11.57;9.03;;;14.00;29.00;;;;;;5091183;28;20423;-69
2024/01/20 10:47:15;;;;;;;13.33;7.80;;;14.20;29.50;;;;;;5091254;28;20473;-69
2024/01/20 10:49:45;;;;;;;9.53;6.40;;;14.90;29.70;;;;;;5091307;28;20921;-69
2024/01/20 10:52:12;;;;;;;10.17;7.77;;;15.60;29.50;;;;;;5091355;28;20429;-69
2024/01/20 10:54:38;;;;;;;13.70;8.90;;;16.00;29.00;;;;;;5091323;28;20538;-70
2024/01/20 10:57:04;;;;;;;12.40;7.80;;;15.80;28.30;;;;;;5092163;28;20493;-70
2024/01/20 10:59:35;;;;;;;8.40;6.70;;;15.60;28.00;;;;;;5094372;28;20434;-70
2024/01/20 11:02:01;;;;;;;9.03;8.10;;;16.20;28.50;;;;;;5089088;28;20698;-69
2024/01/20 11:04:35;;;;;;;9.47;6.97;;;16.70;28.10;;;;;;5114796;28;20426;-69
2024/01/20 11:07:00;;;;;;;13.93;8.27;;;17.70;28.40;;;;;;5114040;28;20530;-69
2024/01/20 11:09:26;;;;;;;11.30;7.73;;;18.30;28.00;;;;;;5115327;28;20499;-70
2024/01/20 11:12:03;;;;;;;13.53;8.33;;;19.30;27.90;;;;;;5114763;28;20168;-69
2024/01/20 11:14:30;;;;;;;11.60;7.93;;;20.00;27.20;;;;;;5114945;28;20192;-69
2024/01/20 11:16:56;;;;;;;6.07;5.00;;;20.10;26.60;;;;;;5095990;28;20780;-70
2024/01/20 11:19:22;;;;;;;5.53;3.20;;;20.80;28.50;;;;;;5115164;28;20399;-69
2024/01/20 11:21:47;;;;;;;9.00;7.40;;;21.80;33.80;;;;;;5115056;28;20165;-70
2024/01/20 11:24:16;;;;;;;10.77;7.03;;;23.40;33.70;;;;;;5114642;28;20770;-70
2024/01/20 11:26:41;;;;;;;8.57;7.03;;;24.50;28.90;;;;;;5114523;28;20214;-70
2024/01/20 11:29:08;;;;;;;11.20;7.20;;;24.40;25.20;;;;;;5114850;28;20794;-70
2024/01/20 11:31:34;;;;;;;11.40;8.53;;;24.10;24.20;;;;;;5114860;28;20193;-70
2024/01/20 11:34:02;;;;;;;10.30;7.23;;;24.10;24.10;;;;;;5113129;28;20446;-70
2024/01/20 11:36:29;;;;;;;13.20;8.87;;;24.10;23.70;;;;;;5093891;28;20396;-70
2024/01/20 11:38:57;;;;;;;10.60;7.50;;;24.00;23.30;;;;;;5094448;28;20392;-70
2024/01/20 11:41:23;;;;;;;10.23;7.57;;;23.90;23.00;;;;;;5094074;28;20395;-70
2024/01/20 11:43:48;;;;;;;12.37;9.77;;;23.90;22.90;;;;;;5094167;28;20769;-69
2024/01/20 11:46:14;;;;;;;11.43;8.40;;;24.10;22.90;;;;;;5093516;28;20173;-70
2024/01/20 11:48:40;;;;;;;10.93;8.30;;;24.50;23.10;;;;;;5094335;28;20250;-70
2024/01/20 11:51:05;;;;;;;11.80;8.23;;;24.40;22.50;;;;;;5094072;28;20551;-70
2024/01/20 11:53:31;;;;;;;11.53;9.03;;;24.30;22.20;;;;;;5093779;28;20189;-70
2024/01/20 11:56:00;;;;;;;16.20;9.63;;;24.30;22.20;;;;;;5093822;28;20196;-70
2024/01/20 11:58:26;;;;;;;14.57;9.53;;;24.60;22.30;;;;;;5094006;28;20176;-70
2024/01/20 12:00:53;;;;;;;13.40;10.03;;;24.40;22.00;;;;;;5093789;28;20419;-70
2024/01/20 12:03:19;;;;;;;17.00;9.90;;;24.40;22.10;;;;;;5093811;28;20404;-70
2024/01/20 12:05:45;;;;;;;14.33;9.90;;;24.50;22.10;;;;;;5093223;28;20423;-70
2024/01/20 12:08:11;;;;;;;11.87;8.87;;;24.40;21.90;;;;;;5093367;28;20411;-70
2024/01/20 12:10:36;;;;;;;17.90;9.80;;;24.40;21.90;;;;;;5093768;28;20323;-70
2024/01/20 12:13:02;;;;;;;16.60;9.90;;;24.60;22.10;;;;;;5093187;28;20170;-70
2024/01/20 12:15:38;;;;;;;14.00;8.60;;;24.70;22.00;;;;;;5093347;28;20268;-70
2024/01/20 12:18:04;;;;;;;13.43;8.60;;;24.80;21.80;;;;;;5109989;28;20175;-70
2024/01/20 12:20:29;;;;;;;14.63;8.60;;;24.70;21.70;;;;;;5114000;28;20402;-70
2024/01/20 12:22:56;;;;;;;16.03;9.97;;;24.20;21.50;;;;;;5113615;28;20173;-70
2024/01/20 12:25:22;;;;;;;12.53;8.70;;;24.00;21.60;;;;;;5113494;28;20181;-70
2024/01/20 12:27:52;;;;;;;14.07;10.70;;;24.10;22.00;;;;;;5113633;28;20897;-70
2024/01/20 12:30:17;;;;;;;10.97;7.13;;;24.60;22.30;;;;;;5113749;28;20173;-70
2024/01/20 12:32:43;;;;;;;9.87;7.20;;;24.70;22.20;;;;;;5113164;28;20937;-70
2024/01/20 12:35:08;;;;;;;9.00;7.43;;;24.90;22.30;;;;;;5113407;28;20197;-69
2024/01/20 12:37:34;;;;;;;10.40;6.90;;;24.90;22.10;;;;;;5113400;28;20192;-69